sensor_id;sensor_type;location;lat;lon;timestamp;pressure;altitude;pressure_sealevel;temperature;humidity
15817;BME280;8009;50.070;8.232;2023-03-20T00:02:10;100208.59;;;10.56;79.85
15817;BME280;8009;50.070;8.232;2023-03-20T00:04:44;100212.94;;;10.46;79.94
15817;BME280;8009;50.070;8.232;2023-03-20T00:07:15;100214.16;;;10.42;80.52
15817;BME280;8009;50.070;8.232;2023-03-20T00:09:44;100217.88;;;10.14;80.92
15817;BME280;8009;50.070;8.232;2023-03-20T00:12:14;100218.34;;;10.08;81.43
15817;BME280;8009;50.070;8.232;2023-03-20T00:14:45;100217.06;;;10.26;80.69
15817;BME280;8009;50.070;8.232;2023-03-20T00:17:19;100207.53;;;10.33;80.55
15817;BME280;8009;50.070;8.232;2023-03-20T00:19:48;100218.69;;;10.29;80.06
15817;BME280;8009;50.070;8.232;2023-03-20T00:22:18;100214.66;;;10.09;80.92
15817;BME280;8009;50.070;8.232;2023-03-20T00:24:47;100216.75;;;10.31;79.82
15817;BME280;8009;50.070;8.232;2023-03-20T00:27:16;100210.25;;;10.33;79.95
15817;BME280;8009;50.070;8.232;2023-03-20T00:29:45;100215.84;;;10.17;80.62
15817;BME280;8009;50.070;8.232;2023-03-20T00:32:14;100211.34;;;10.31;80.07
15817;BME280;8009;50.070;8.232;2023-03-20T00:34:42;100213.50;;;10.25;80.28
15817;BME280;8009;50.070;8.232;2023-03-20T00:37:11;100215.56;;;10.35;80.03
15817;BME280;8009;50.070;8.232;2023-03-20T00:39:42;100211.34;;;10.31;79.62
15817;BME280;8009;50.070;8.232;2023-03-20T00:42:18;100220.59;;;10.14;80.14
15817;BME280;8009;50.070;8.232;2023-03-20T00:44:52;100219.81;;;9.99;80.96
15817;BME280;8009;50.070;8.232;2023-03-20T00:47:24;100221.75;;;10.22;80.06
15817;BME280;8009;50.070;8.232;2023-03-20T00:49:53;100227.63;;;10.16;80.45
15817;BME280;8009;50.070;8.232;2023-03-20T00:52:22;100225.56;;;10.20;79.96
15817;BME280;8009;50.070;8.232;2023-03-20T00:54:53;100226.03;;;10.27;80.42
15817;BME280;8009;50.070;8.232;2023-03-20T00:57:24;100231.44;;;10.27;80.18
15817;BME280;8009;50.070;8.232;2023-03-20T00:59:56;100234.22;;;10.25;80.58
15817;BME280;8009;50.070;8.232;2023-03-20T01:02:28;100228.25;;;10.20;79.94
15817;BME280;8009;50.070;8.232;2023-03-20T01:04:56;100233.88;;;10.04;80.87
15817;BME280;8009;50.070;8.232;2023-03-20T01:07:25;100224.78;;;10.18;80.27
15817;BME280;8009;50.070;8.232;2023-03-20T01:09:56;100226.44;;;10.33;80.12
15817;BME280;8009;50.070;8.232;2023-03-20T01:12:24;100232.28;;;10.40;79.32
15817;BME280;8009;50.070;8.232;2023-03-20T01:14:55;100228.72;;;10.39;79.23
15817;BME280;8009;50.070;8.232;2023-03-20T01:17:25;100222.25;;;10.42;79.32
15817;BME280;8009;50.070;8.232;2023-03-20T01:19:54;100238.84;;;10.48;79.25
15817;BME280;8009;50.070;8.232;2023-03-20T01:22:22;100238.09;;;10.46;79.31
15817;BME280;8009;50.070;8.232;2023-03-20T01:24:50;100230.19;;;10.56;78.98
15817;BME280;8009;50.070;8.232;2023-03-20T01:27:22;100231.94;;;10.57;78.74
15817;BME280;8009;50.070;8.232;2023-03-20T01:29:52;100230.31;;;10.55;78.75
15817;BME280;8009;50.070;8.232;2023-03-20T01:32:20;100238.22;;;10.32;79.31
15817;BME280;8009;50.070;8.232;2023-03-20T01:34:49;100239.72;;;10.36;79.13
15817;BME280;8009;50.070;8.232;2023-03-20T01:37:25;100240.38;;;10.40;78.97
15817;BME280;8009;50.070;8.232;2023-03-20T01:39:54;100243.41;;;10.35;79.60
15817;BME280;8009;50.070;8.232;2023-03-20T01:42:26;100236.38;;;10.33;79.19
15817;BME280;8009;50.070;8.232;2023-03-20T01:44:54;100233.03;;;10.29;79.56
15817;BME280;8009;50.070;8.232;2023-03-20T01:47:23;100237.00;;;10.23;79.68
15817;BME280;8009;50.070;8.232;2023-03-20T01:50:17;100245.97;;;10.37;79.66
15817;BME280;8009;50.070;8.232;2023-03-20T01:52:49;100232.59;;;10.48;79.02
15817;BME280;8009;50.070;8.232;2023-03-20T01:55:22;100242.84;;;10.43;79.15
15817;BME280;8009;50.070;8.232;2023-03-20T01:57:56;100241.56;;;10.36;79.96
15817;BME280;8009;50.070;8.232;2023-03-20T02:00:26;100236.69;;;10.41;79.58
15817;BME280;8009;50.070;8.232;2023-03-20T02:02:55;100244.34;;;10.09;80.03
15817;BME280;8009;50.070;8.232;2023-03-20T02:05:25;100250.31;;;10.27;80.12
15817;BME280;8009;50.070;8.232;2023-03-20T02:07:59;100244.13;;;10.37;79.22
15817;BME280;8009;50.070;8.232;2023-03-20T02:10:29;100245.00;;;10.25;79.64
15817;BME280;8009;50.070;8.232;2023-03-20T02:13:02;100248.88;;;10.21;79.70
15817;BME280;8009;50.070;8.232;2023-03-20T02:15:31;100250.31;;;10.27;79.68
15817;BME280;8009;50.070;8.232;2023-03-20T02:18:00;100248.75;;;10.22;79.87
15817;BME280;8009;50.070;8.232;2023-03-20T02:20:39;100251.72;;;10.32;79.35
15817;BME280;8009;50.070;8.232;2023-03-20T02:23:36;100243.34;;;10.22;80.30
15817;BME280;8009;50.070;8.232;2023-03-20T02:26:20;100245.72;;;10.14;80.29
15817;BME280;8009;50.070;8.232;2023-03-20T02:29:16;100248.69;;;10.49;79.04
15817;BME280;8009;50.070;8.232;2023-03-20T02:35:18;100240.59;;;10.37;79.25
15817;BME280;8009;50.070;8.232;2023-03-20T02:38:14;100240.59;;;10.49;78.45
15817;BME280;8009;50.070;8.232;2023-03-20T02:40:47;100249.34;;;10.53;78.98
15817;BME280;8009;50.070;8.232;2023-03-20T02:43:24;100251.16;;;10.40;78.97
15817;BME280;8009;50.070;8.232;2023-03-20T02:45:58;100251.19;;;10.27;79.56
15817;BME280;8009;50.070;8.232;2023-03-20T02:48:38;100252.13;;;10.52;78.80
15817;BME280;8009;50.070;8.232;2023-03-20T02:51:14;100242.41;;;10.49;78.74
15817;BME280;8009;50.070;8.232;2023-03-20T02:53:52;100248.69;;;10.49;78.87
15817;BME280;8009;50.070;8.232;2023-03-20T02:56:28;100249.66;;;10.23;79.67
15817;BME280;8009;50.070;8.232;2023-03-20T02:59:02;100250.72;;;10.20;79.77
15817;BME280;8009;50.070;8.232;2023-03-20T03:01:36;100254.91;;;9.99;81.24
15817;BME280;8009;50.070;8.232;2023-03-20T03:04:09;100254.03;;;9.86;81.81
15817;BME280;8009;50.070;8.232;2023-03-20T03:06:41;100252.72;;;9.91;81.23
15817;BME280;8009;50.070;8.232;2023-03-20T03:09:17;100246.06;;;10.10;80.55
15817;BME280;8009;50.070;8.232;2023-03-20T03:11:53;100243.56;;;9.94;81.62
15817;BME280;8009;50.070;8.232;2023-03-20T03:14:36;100253.25;;;9.84;81.93
15817;BME280;8009;50.070;8.232;2023-03-20T03:17:07;100256.41;;;9.90;81.56
15817;BME280;8009;50.070;8.232;2023-03-20T03:19:39;100255.25;;;9.55;83.65
15817;BME280;8009;50.070;8.232;2023-03-20T03:22:09;100255.22;;;9.82;81.97
15817;BME280;8009;50.070;8.232;2023-03-20T03:24:42;100256.28;;;9.92;81.52
15817;BME280;8009;50.070;8.232;2023-03-20T03:27:16;100259.75;;;9.94;81.61
15817;BME280;8009;50.070;8.232;2023-03-20T03:29:51;100263.97;;;9.98;81.97
15817;BME280;8009;50.070;8.232;2023-03-20T03:32:25;100262.78;;;9.89;82.16
15817;BME280;8009;50.070;8.232;2023-03-20T03:34:54;100270.63;;;9.80;82.76
15817;BME280;8009;50.070;8.232;2023-03-20T03:37:36;100284.97;;;9.80;83.00
15817;BME280;8009;50.070;8.232;2023-03-20T03:40:18;100273.88;;;9.85;82.69
15817;BME280;8009;50.070;8.232;2023-03-20T03:42:55;100277.56;;;9.96;82.04
15817;BME280;8009;50.070;8.232;2023-03-20T03:45:31;100278.50;;;9.95;81.92
15817;BME280;8009;50.070;8.232;2023-03-20T03:48:04;100281.25;;;10.08;81.58
15817;BME280;8009;50.070;8.232;2023-03-20T03:50:37;100286.31;;;10.13;81.59
15817;BME280;8009;50.070;8.232;2023-03-20T03:53:13;100284.03;;;10.07;81.84
15817;BME280;8009;50.070;8.232;2023-03-20T03:55:50;100279.41;;;10.09;81.75
15817;BME280;8009;50.070;8.232;2023-03-20T03:58:22;100288.25;;;10.11;81.28
15817;BME280;8009;50.070;8.232;2023-03-20T04:00:53;100272.97;;;10.11;82.01
15817;BME280;8009;50.070;8.232;2023-03-20T04:03:28;100271.84;;;10.14;81.44
15817;BME280;8009;50.070;8.232;2023-03-20T04:05:58;100268.91;;;9.91;81.95
15817;BME280;8009;50.070;8.232;2023-03-20T04:08:27;100281.25;;;10.08;81.59
15817;BME280;8009;50.070;8.232;2023-03-20T04:10:58;100281.78;;;10.00;82.20
15817;BME280;8009;50.070;8.232;2023-03-20T04:13:26;100290.72;;;9.88;82.73
15817;BME280;8009;50.070;8.232;2023-03-20T04:15:54;100287.72;;;9.93;83.06
15817;BME280;8009;50.070;8.232;2023-03-20T04:18:23;100286.41;;;9.86;83.90
15817;BME280;8009;50.070;8.232;2023-03-20T04:20:51;100286.78;;;9.80;83.81
15817;BME280;8009;50.070;8.232;2023-03-20T04:23:19;100289.81;;;9.75;84.23
15817;BME280;8009;50.070;8.232;2023-03-20T04:25:48;100293.16;;;9.79;84.39
15817;BME280;8009;50.070;8.232;2023-03-20T04:28:19;100305.84;;;9.64;85.48
15817;BME280;8009;50.070;8.232;2023-03-20T04:30:51;100306.31;;;9.70;84.89
15817;BME280;8009;50.070;8.232;2023-03-20T04:33:20;100309.72;;;9.60;85.44
15817;BME280;8009;50.070;8.232;2023-03-20T04:35:49;100315.72;;;9.77;84.85
15817;BME280;8009;50.070;8.232;2023-03-20T04:38:19;100313.34;;;9.73;85.28
15817;BME280;8009;50.070;8.232;2023-03-20T04:40:48;100315.38;;;9.69;85.06
15817;BME280;8009;50.070;8.232;2023-03-20T04:43:19;100318.41;;;9.77;84.74
15817;BME280;8009;50.070;8.232;2023-03-20T04:45:49;100317.31;;;9.80;84.53
15817;BME280;8009;50.070;8.232;2023-03-20T04:48:17;100322.69;;;9.67;84.52
15817;BME280;8009;50.070;8.232;2023-03-20T04:50:46;100328.63;;;9.72;84.09
15817;BME280;8009;50.070;8.232;2023-03-20T04:53:15;100335.84;;;9.45;84.16
15817;BME280;8009;50.070;8.232;2023-03-20T04:55:44;100334.78;;;9.47;84.19
15817;BME280;8009;50.070;8.232;2023-03-20T04:58:13;100336.16;;;9.40;84.47
15817;BME280;8009;50.070;8.232;2023-03-20T05:00:44;100334.13;;;9.44;83.91
15817;BME280;8009;50.070;8.232;2023-03-20T05:03:12;100328.06;;;9.40;83.90
15817;BME280;8009;50.070;8.232;2023-03-20T05:05:40;100315.16;;;9.45;83.58
15817;BME280;8009;50.070;8.232;2023-03-20T05:08:09;100319.22;;;9.65;83.04
15817;BME280;8009;50.070;8.232;2023-03-20T05:10:37;100312.56;;;9.71;82.51
15817;BME280;8009;50.070;8.232;2023-03-20T05:13:05;100312.88;;;9.66;82.25
15817;BME280;8009;50.070;8.232;2023-03-20T05:15:34;100302.28;;;9.63;82.22
15817;BME280;8009;50.070;8.232;2023-03-20T05:18:04;100293.69;;;9.71;81.70
15817;BME280;8009;50.070;8.232;2023-03-20T05:20:34;100291.91;;;9.97;81.15
15817;BME280;8009;50.070;8.232;2023-03-20T05:23:02;100304.22;;;9.88;80.93
15817;BME280;8009;50.070;8.232;2023-03-20T05:25:30;100295.22;;;9.75;81.06
15817;BME280;8009;50.070;8.232;2023-03-20T05:27:59;100287.25;;;9.46;82.39
15817;BME280;8009;50.070;8.232;2023-03-20T05:30:27;100298.97;;;9.72;81.44
15817;BME280;8009;50.070;8.232;2023-03-20T05:32:56;100316.47;;;9.80;81.00
15817;BME280;8009;50.070;8.232;2023-03-20T05:35:27;100322.03;;;9.37;81.55
15817;BME280;8009;50.070;8.232;2023-03-20T05:37:55;100316.94;;;9.59;81.27
15817;BME280;8009;50.070;8.232;2023-03-20T05:40:23;100312.88;;;9.66;80.83
15817;BME280;8009;50.070;8.232;2023-03-20T05:42:51;100313.03;;;9.77;80.01
15817;BME280;8009;50.070;8.232;2023-03-20T05:45:20;100312.97;;;9.65;80.67
15817;BME280;8009;50.070;8.232;2023-03-20T05:47:48;100310.41;;;9.49;82.02
15817;BME280;8009;50.070;8.232;2023-03-20T05:50:16;100314.78;;;9.64;81.33
15817;BME280;8009;50.070;8.232;2023-03-20T05:52:48;100312.25;;;9.48;81.78
15817;BME280;8009;50.070;8.232;2023-03-20T05:55:16;100316.97;;;9.45;82.02
15817;BME280;8009;50.070;8.232;2023-03-20T05:57:45;100327.75;;;9.45;81.51
15817;BME280;8009;50.070;8.232;2023-03-20T06:00:14;100326.94;;;9.57;81.67
15817;BME280;8009;50.070;8.232;2023-03-20T06:02:43;100326.16;;;9.69;81.60
15817;BME280;8009;50.070;8.232;2023-03-20T06:05:11;100339.00;;;9.51;81.74
15817;BME280;8009;50.070;8.232;2023-03-20T06:07:39;100339.22;;;9.48;81.55
15817;BME280;8009;50.070;8.232;2023-03-20T06:10:11;100337.88;;;9.41;81.76
15817;BME280;8009;50.070;8.232;2023-03-20T06:12:39;100331.38;;;9.31;81.86
15817;BME280;8009;50.070;8.232;2023-03-20T06:15:08;100348.97;;;9.64;80.73
15817;BME280;8009;50.070;8.232;2023-03-20T06:17:38;100345.97;;;9.68;80.76
15817;BME280;8009;50.070;8.232;2023-03-20T06:20:08;100341.41;;;9.56;81.27
15817;BME280;8009;50.070;8.232;2023-03-20T06:22:37;100345.31;;;9.65;80.76
15817;BME280;8009;50.070;8.232;2023-03-20T06:25:06;100340.84;;;9.78;80.27
15817;BME280;8009;50.070;8.232;2023-03-20T06:27:37;100336.53;;;10.15;79.66
15817;BME280;8009;50.070;8.232;2023-03-20T06:30:07;100340.41;;;10.24;79.08
15817;BME280;8009;50.070;8.232;2023-03-20T06:32:36;100329.97;;;10.32;78.37
15817;BME280;8009;50.070;8.232;2023-03-20T06:35:07;100336.34;;;9.91;79.40
15817;BME280;8009;50.070;8.232;2023-03-20T06:37:35;100339.75;;;10.08;79.48
15817;BME280;8009;50.070;8.232;2023-03-20T06:40:05;100343.44;;;10.19;78.96
15817;BME280;8009;50.070;8.232;2023-03-20T06:42:37;100338.56;;;10.12;79.99
15817;BME280;8009;50.070;8.232;2023-03-20T06:45:06;100336.09;;;10.21;79.25
15817;BME280;8009;50.070;8.232;2023-03-20T06:47:36;100334.00;;;9.72;80.94
15817;BME280;8009;50.070;8.232;2023-03-20T06:50:06;100334.16;;;10.23;78.90
15817;BME280;8009;50.070;8.232;2023-03-20T06:52:34;100328.72;;;9.98;79.94
15817;BME280;8009;50.070;8.232;2023-03-20T06:55:03;100334.88;;;10.00;79.64
15817;BME280;8009;50.070;8.232;2023-03-20T06:57:32;100336.94;;;10.09;78.49
15817;BME280;8009;50.070;8.232;2023-03-20T07:00:03;100336.41;;;10.17;78.61
15817;BME280;8009;50.070;8.232;2023-03-20T07:02:32;100342.00;;;10.14;78.52
15817;BME280;8009;50.070;8.232;2023-03-20T07:05:00;100345.63;;;9.87;79.08
15817;BME280;8009;50.070;8.232;2023-03-20T07:07:29;100346.31;;;9.76;80.78
15817;BME280;8009;50.070;8.232;2023-03-20T07:09:57;100347.66;;;10.23;79.29
15817;BME280;8009;50.070;8.232;2023-03-20T07:12:26;100346.53;;;10.13;78.77
15817;BME280;8009;50.070;8.232;2023-03-20T07:14:56;100361.41;;;9.93;79.37
15817;BME280;8009;50.070;8.232;2023-03-20T07:17:27;100353.47;;;9.77;79.91
15817;BME280;8009;50.070;8.232;2023-03-20T07:19:56;100364.22;;;10.32;79.44
15817;BME280;8009;50.070;8.232;2023-03-20T07:22:27;100364.75;;;10.37;79.08
15817;BME280;8009;50.070;8.232;2023-03-20T07:24:55;100367.50;;;10.22;80.04
15817;BME280;8009;50.070;8.232;2023-03-20T07:27:24;100360.66;;;10.57;79.93
15817;BME280;8009;50.070;8.232;2023-03-20T07:29:52;100375.50;;;10.24;81.77
15817;BME280;8009;50.070;8.232;2023-03-20T07:32:20;100372.88;;;10.10;83.16
15817;BME280;8009;50.070;8.232;2023-03-20T07:34:51;100375.59;;;10.49;81.69
15817;BME280;8009;50.070;8.232;2023-03-20T07:37:20;100375.13;;;10.43;81.69
15817;BME280;8009;50.070;8.232;2023-03-20T07:39:48;100375.91;;;10.18;82.17
15817;BME280;8009;50.070;8.232;2023-03-20T07:42:16;100391.00;;;10.35;82.32
15817;BME280;8009;50.070;8.232;2023-03-20T07:44:45;100375.47;;;10.11;82.50
15817;BME280;8009;50.070;8.232;2023-03-20T07:47:13;100373.38;;;10.02;81.97
15817;BME280;8009;50.070;8.232;2023-03-20T07:49:41;100374.47;;;10.27;82.01
15817;BME280;8009;50.070;8.232;2023-03-20T07:52:13;100366.59;;;10.36;80.81
15817;BME280;8009;50.070;8.232;2023-03-20T07:54:42;100355.50;;;10.66;80.42
15817;BME280;8009;50.070;8.232;2023-03-20T07:57:10;100352.13;;;10.76;80.59
15817;BME280;8009;50.070;8.232;2023-03-20T07:59:39;100354.31;;;10.58;80.94
15817;BME280;8009;50.070;8.232;2023-03-20T08:02:13;100368.13;;;10.91;79.82
15817;BME280;8009;50.070;8.232;2023-03-20T08:04:41;100375.34;;;10.91;80.08
15817;BME280;8009;50.070;8.232;2023-03-20T08:07:13;100374.69;;;11.13;79.95
15817;BME280;8009;50.070;8.232;2023-03-20T08:09:41;100363.91;;;11.00;79.77
15817;BME280;8009;50.070;8.232;2023-03-20T08:12:10;100364.53;;;11.16;79.19
15817;BME280;8009;50.070;8.232;2023-03-20T08:14:38;100376.19;;;11.17;79.02
15817;BME280;8009;50.070;8.232;2023-03-20T08:17:08;100381.69;;;11.28;78.50
15817;BME280;8009;50.070;8.232;2023-03-20T08:19:36;100381.91;;;11.25;78.64
15817;BME280;8009;50.070;8.232;2023-03-20T08:22:05;100389.44;;;11.33;78.33
15817;BME280;8009;50.070;8.232;2023-03-20T08:24:36;100389.53;;;11.44;78.14
15817;BME280;8009;50.070;8.232;2023-03-20T08:27:04;100385.00;;;11.44;78.18
15817;BME280;8009;50.070;8.232;2023-03-20T08:29:33;100385.88;;;11.45;78.12
15817;BME280;8009;50.070;8.232;2023-03-20T08:32:01;100390.44;;;11.32;79.18
15817;BME280;8009;50.070;8.232;2023-03-20T08:34:30;100400.38;;;11.31;78.89
15817;BME280;8009;50.070;8.232;2023-03-20T08:36:59;100404.34;;;11.51;78.33
15817;BME280;8009;50.070;8.232;2023-03-20T08:39:29;100405.06;;;11.66;77.06
15817;BME280;8009;50.070;8.232;2023-03-20T08:42:00;100406.69;;;11.68;77.63
15817;BME280;8009;50.070;8.232;2023-03-20T08:44:29;100402.94;;;11.95;75.94
15817;BME280;8009;50.070;8.232;2023-03-20T08:46:57;100408.75;;;11.65;76.21
15817;BME280;8009;50.070;8.232;2023-03-20T08:49:26;100412.56;;;11.50;76.24
15817;BME280;8009;50.070;8.232;2023-03-20T08:51:57;100414.72;;;11.44;76.32
15817;BME280;8009;50.070;8.232;2023-03-20T08:54:26;100405.47;;;11.36;77.41
15817;BME280;8009;50.070;8.232;2023-03-20T08:56:55;100407.13;;;11.62;76.29
15817;BME280;8009;50.070;8.232;2023-03-20T08:59:26;100406.75;;;11.80;75.74
15817;BME280;8009;50.070;8.232;2023-03-20T09:01:55;100408.47;;;11.81;75.39
15817;BME280;8009;50.070;8.232;2023-03-20T09:04:23;100413.47;;;11.87;75.95
15817;BME280;8009;50.070;8.232;2023-03-20T09:06:52;100410.88;;;11.73;75.73
15817;BME280;8009;50.070;8.232;2023-03-20T09:09:25;100407.69;;;11.55;77.83
15817;BME280;8009;50.070;8.232;2023-03-20T09:11:54;100402.88;;;12.08;75.48
15817;BME280;8009;50.070;8.232;2023-03-20T09:14:31;100403.72;;;11.84;75.92
15817;BME280;8009;50.070;8.232;2023-03-20T09:17:00;100399.16;;;12.33;74.09
15817;BME280;8009;50.070;8.232;2023-03-20T09:19:29;100399.22;;;12.44;73.83
15817;BME280;8009;50.070;8.232;2023-03-20T09:21:57;100400.69;;;12.48;73.40
15817;BME280;8009;50.070;8.232;2023-03-20T09:24:25;100388.34;;;12.33;73.07
15817;BME280;8009;50.070;8.232;2023-03-20T09:26:54;100397.91;;;12.72;72.26
15817;BME280;8009;50.070;8.232;2023-03-20T09:29:23;100391.00;;;12.68;71.90
15817;BME280;8009;50.070;8.232;2023-03-20T09:31:54;100387.97;;;12.95;71.83
15817;BME280;8009;50.070;8.232;2023-03-20T09:34:22;100383.41;;;12.96;70.31
15817;BME280;8009;50.070;8.232;2023-03-20T09:36:51;100383.13;;;12.65;69.23
15817;BME280;8009;50.070;8.232;2023-03-20T09:39:20;100384.00;;;12.77;70.70
15817;BME280;8009;50.070;8.232;2023-03-20T09:41:49;100398.41;;;12.77;70.60
15817;BME280;8009;50.070;8.232;2023-03-20T09:44:31;100396.75;;;12.52;70.56
15817;BME280;8009;50.070;8.232;2023-03-20T09:47:26;100400.28;;;12.41;71.38
15817;BME280;8009;50.070;8.232;2023-03-20T09:50:10;100397.91;;;12.02;73.40
15817;BME280;8009;50.070;8.232;2023-03-20T09:52:53;100388.66;;;12.63;70.77
15817;BME280;8009;50.070;8.232;2023-03-20T09:55:28;100397.44;;;12.78;70.59
15817;BME280;8009;50.070;8.232;2023-03-20T09:58:03;100388.25;;;13.37;69.23
15817;BME280;8009;50.070;8.232;2023-03-20T10:00:33;100388.09;;;13.61;68.30
15817;BME280;8009;50.070;8.232;2023-03-20T10:03:16;100381.34;;;13.44;65.56
15817;BME280;8009;50.070;8.232;2023-03-20T10:05:48;100387.63;;;13.45;66.50
15817;BME280;8009;50.070;8.232;2023-03-20T10:08:21;100385.41;;;13.38;65.63
15817;BME280;8009;50.070;8.232;2023-03-20T10:10:59;100387.00;;;13.18;67.57
15817;BME280;8009;50.070;8.232;2023-03-20T10:13:44;100382.19;;;13.56;63.86
15817;BME280;8009;50.070;8.232;2023-03-20T10:16:25;100389.31;;;13.12;64.91
15817;BME280;8009;50.070;8.232;2023-03-20T10:19:02;100387.25;;;13.49;63.62
15817;BME280;8009;50.070;8.232;2023-03-20T10:21:37;100382.44;;;13.41;63.96
15817;BME280;8009;50.070;8.232;2023-03-20T10:24:14;100384.44;;;13.51;64.09
15817;BME280;8009;50.070;8.232;2023-03-20T10:26:46;100388.84;;;13.52;64.73
15817;BME280;8009;50.070;8.232;2023-03-20T10:29:23;100388.34;;;13.47;64.71
15817;BME280;8009;50.070;8.232;2023-03-20T10:31:56;100388.25;;;13.37;63.86
15817;BME280;8009;50.070;8.232;2023-03-20T10:34:40;100387.78;;;13.32;65.21
15817;BME280;8009;50.070;8.232;2023-03-20T10:37:24;100383.28;;;13.53;65.28
15817;BME280;8009;50.070;8.232;2023-03-20T10:40:04;100380.34;;;14.00;63.00
15817;BME280;8009;50.070;8.232;2023-03-20T10:42:43;100377.47;;;13.69;63.37
15817;BME280;8009;50.070;8.232;2023-03-20T10:45:26;100385.16;;;13.53;63.43
15817;BME280;8009;50.070;8.232;2023-03-20T10:47:59;100380.28;;;13.79;62.57
15817;BME280;8009;50.070;8.232;2023-03-20T10:50:36;100371.88;;;13.93;63.05
15817;BME280;8009;50.070;8.232;2023-03-20T10:53:18;100379.28;;;13.80;62.10
15817;BME280;8009;50.070;8.232;2023-03-20T10:55:48;100381.91;;;13.70;61.87
15817;BME280;8009;50.070;8.232;2023-03-20T10:58:21;100374.56;;;12.93;63.95
15817;BME280;8009;50.070;8.232;2023-03-20T11:00:53;100370.72;;;13.18;64.10
15817;BME280;8009;50.070;8.232;2023-03-20T11:03:24;100370.00;;;13.28;63.91
15817;BME280;8009;50.070;8.232;2023-03-20T11:05:58;100365.56;;;13.38;64.33
15817;BME280;8009;50.070;8.232;2023-03-20T11:08:33;100371.34;;;13.45;62.93
15817;BME280;8009;50.070;8.232;2023-03-20T11:11:03;100367.59;;;13.68;62.74
15817;BME280;8009;50.070;8.232;2023-03-20T11:13:33;100360.66;;;13.32;63.79
15817;BME280;8009;50.070;8.232;2023-03-20T11:16:18;100368.63;;;13.45;62.76
15817;BME280;8009;50.070;8.232;2023-03-20T11:18:49;100367.72;;;13.78;62.13
15817;BME280;8009;50.070;8.232;2023-03-20T11:21:22;100357.66;;;14.01;61.94
15817;BME280;8009;50.070;8.232;2023-03-20T11:23:54;100368.56;;;13.78;61.07
15817;BME280;8009;50.070;8.232;2023-03-20T11:26:33;100361.13;;;13.92;58.72
15817;BME280;8009;50.070;8.232;2023-03-20T11:29:04;100356.88;;;13.67;59.34
15817;BME280;8009;50.070;8.232;2023-03-20T11:31:36;100355.88;;;13.68;57.76
15817;BME280;8009;50.070;8.232;2023-03-20T11:34:10;100355.06;;;13.88;57.28
15817;BME280;8009;50.070;8.232;2023-03-20T11:36:54;100357.19;;;13.84;58.32
15817;BME280;8009;50.070;8.232;2023-03-20T11:39:24;100347.91;;;13.98;57.73
15817;BME280;8009;50.070;8.232;2023-03-20T11:41:55;100346.25;;;14.07;57.77
15817;BME280;8009;50.070;8.232;2023-03-20T11:44:25;100337.59;;;14.34;55.73
15817;BME280;8009;50.070;8.232;2023-03-20T11:46:58;100339.66;;;14.42;57.31
15817;BME280;8009;50.070;8.232;2023-03-20T11:49:28;100333.47;;;13.98;56.41
15817;BME280;8009;50.070;8.232;2023-03-20T11:52:08;100324.50;;;14.39;54.00
15817;BME280;8009;50.070;8.232;2023-03-20T11:54:45;100323.81;;;14.47;52.08
15817;BME280;8009;50.070;8.232;2023-03-20T11:57:30;100324.59;;;14.37;56.79
15817;BME280;8009;50.070;8.232;2023-03-20T12:00:02;100326.03;;;14.53;54.16
15817;BME280;8009;50.070;8.232;2023-03-20T12:02:30;100320.69;;;14.30;54.68
15817;BME280;8009;50.070;8.232;2023-03-20T12:05:01;100310.25;;;14.68;50.08
15817;BME280;8009;50.070;8.232;2023-03-20T12:07:49;100320.50;;;14.64;50.43
15817;BME280;8009;50.070;8.232;2023-03-20T12:10:27;100307.72;;;14.13;52.37
15817;BME280;8009;50.070;8.232;2023-03-20T12:13:05;100322.22;;;14.02;51.83
15817;BME280;8009;50.070;8.232;2023-03-20T12:15:46;100323.72;;;13.95;54.12
15817;BME280;8009;50.070;8.232;2023-03-20T12:18:22;100315.72;;;13.94;51.65
15817;BME280;8009;50.070;8.232;2023-03-20T12:21:00;100312.19;;;14.35;51.30
15817;BME280;8009;50.070;8.232;2023-03-20T12:23:39;100311.75;;;13.98;55.06
15817;BME280;8009;50.070;8.232;2023-03-20T12:26:11;100309.44;;;14.14;50.28
15817;BME280;8009;50.070;8.232;2023-03-20T12:28:43;100306.38;;;14.07;51.91
15817;BME280;8009;50.070;8.232;2023-03-20T12:31:21;100315.38;;;14.08;50.51
15817;BME280;8009;50.070;8.232;2023-03-20T12:33:56;100312.47;;;14.00;53.13
15817;BME280;8009;50.070;8.232;2023-03-20T12:36:30;100310.28;;;13.94;51.20
15817;BME280;8009;50.070;8.232;2023-03-20T12:39:05;100307.81;;;13.90;49.40
15817;BME280;8009;50.070;8.232;2023-03-20T12:41:42;100310.09;;;14.06;51.87
15817;BME280;8009;50.070;8.232;2023-03-20T12:44:26;100297.16;;;13.99;54.33
15817;BME280;8009;50.070;8.232;2023-03-20T12:47:06;100300.72;;;13.78;53.54
15817;BME280;8009;50.070;8.232;2023-03-20T12:49:48;100297.56;;;13.62;54.47
15817;BME280;8009;50.070;8.232;2023-03-20T12:52:29;100294.53;;;13.76;55.14
15817;BME280;8009;50.070;8.232;2023-03-20T12:55:33;100295.28;;;13.78;53.91
15817;BME280;8009;50.070;8.232;2023-03-20T12:58:16;100289.72;;;13.80;55.09
15817;BME280;8009;50.070;8.232;2023-03-20T13:00:52;100283.63;;;13.67;54.50
15817;BME280;8009;50.070;8.232;2023-03-20T13:03:35;100284.16;;;13.49;50.85
15817;BME280;8009;50.070;8.232;2023-03-20T13:06:13;100277.38;;;13.55;49.80
15817;BME280;8009;50.070;8.232;2023-03-20T13:08:53;100271.94;;;13.87;51.39
15817;BME280;8009;50.070;8.232;2023-03-20T13:11:35;100266.72;;;13.95;48.66
15817;BME280;8009;50.070;8.232;2023-03-20T13:14:12;100273.34;;;13.81;48.33
15817;BME280;8009;50.070;8.232;2023-03-20T13:16:48;100269.81;;;13.90;49.78
15817;BME280;8009;50.070;8.232;2023-03-20T13:19:25;100276.00;;;13.60;52.14
15817;BME280;8009;50.070;8.232;2023-03-20T13:22:00;100268.19;;;13.67;49.79
15817;BME280;8009;50.070;8.232;2023-03-20T13:24:38;100269.88;;;13.79;50.63
15817;BME280;8009;50.070;8.232;2023-03-20T13:27:20;100271.59;;;13.80;49.72
15817;BME280;8009;50.070;8.232;2023-03-20T13:29:59;100276.56;;;13.75;52.83
15817;BME280;8009;50.070;8.232;2023-03-20T13:32:40;100267.19;;;13.68;49.39
15817;BME280;8009;50.070;8.232;2023-03-20T13:35:34;100267.56;;;13.75;48.93